createdAt,value
2023-07-04T00:01:21.118Z,7.35
2023-07-04T00:03:53.176Z,7.75
2023-07-04T00:06:21.928Z,5.55
2023-07-04T00:08:51.054Z,6.90
2023-07-04T00:11:21.806Z,6.70
2023-07-04T00:13:51.717Z,5.78
2023-07-04T00:16:19.675Z,9.02
2023-07-04T00:18:47.565Z,6.10
2023-07-04T00:21:16.691Z,9.93
2023-07-04T00:23:47.409Z,8.77
2023-07-04T00:26:17.366Z,7.68
2023-07-04T00:28:47.724Z,9.45
2023-07-04T00:31:18.079Z,12.88
2023-07-04T00:33:47.214Z,7.38
2023-07-04T00:36:17.513Z,6.40
2023-07-04T00:38:50.041Z,10.35
2023-07-04T00:41:21.579Z,14.77
2023-07-04T00:44:00.601Z,8.23
2023-07-04T00:46:41.470Z,8.02
2023-07-04T00:49:19.361Z,6.40
2023-07-04T00:51:59.493Z,8.30
2023-07-04T00:54:31.942Z,10.65
2023-07-04T00:57:04.027Z,7.53
2023-07-04T00:59:44.371Z,8.02
2023-07-04T01:02:13.303Z,4.75
2023-07-04T01:04:42.761Z,4.97
2023-07-04T01:07:32.500Z,5.43
2023-07-04T01:10:13.474Z,5.15
2023-07-04T01:12:43.234Z,4.13
2023-07-04T01:15:13.228Z,7.07
2023-07-04T01:17:43.170Z,4.00
2023-07-04T01:20:13.611Z,3.13
2023-07-04T01:22:51.266Z,3.70
2023-07-04T01:25:28.747Z,4.07
2023-07-04T01:28:01.718Z,3.75
2023-07-04T01:30:31.401Z,2.78
2023-07-04T01:33:00.563Z,4.82
2023-07-04T01:35:30.008Z,2.95
2023-07-04T01:38:00.368Z,1.38
2023-07-04T01:40:28.259Z,2.47
2023-07-04T01:42:56.053Z,1.25
2023-07-04T01:45:25.508Z,1.98
2023-07-04T01:47:54.197Z,2.85
2023-07-04T01:50:22.686Z,2.65
2023-07-04T01:52:50.517Z,3.03
2023-07-04T01:55:18.392Z,2.70
2023-07-04T01:57:47.467Z,2.70
2023-07-04T02:00:15.988Z,2.22
2023-07-04T02:02:57.474Z,2.63
2023-07-04T02:05:25.796Z,1.92
2023-07-04T02:07:53.622Z,2.72
2023-07-04T02:10:21.430Z,2.58
2023-07-04T02:12:49.259Z,3.20
2023-07-04T02:15:18.133Z,2.03
2023-07-04T02:17:46.075Z,2.28
2023-07-04T02:20:17.431Z,4.00
2023-07-04T02:22:45.924Z,2.33
2023-07-04T02:25:13.724Z,2.20
2023-07-04T02:27:42.142Z,3.38
2023-07-04T02:30:10.647Z,3.15
2023-07-04T02:32:38.412Z,1.95
2023-07-04T02:35:08.322Z,3.72
2023-07-04T02:37:39.586Z,2.30
2023-07-04T02:40:08.508Z,4.45
2023-07-04T02:42:36.329Z,3.90
2023-07-04T02:45:05.046Z,3.42
2023-07-04T02:47:33.159Z,3.33
2023-07-04T02:50:03.638Z,2.97
2023-07-04T02:52:32.240Z,2.92
2023-07-04T02:55:01.317Z,2.53
2023-07-04T02:57:29.711Z,4.30
2023-07-04T03:00:00.332Z,2.08
2023-07-04T03:02:29.995Z,3.20
2023-07-04T03:04:58.847Z,3.35
2023-07-04T03:07:29.621Z,1.40
2023-07-04T03:09:58.241Z,3.45
2023-07-04T03:12:30.366Z,5.65
2023-07-04T03:14:59.642Z,3.25
2023-07-04T03:17:29.061Z,2.35
2023-07-04T03:19:57.397Z,1.73
2023-07-04T03:22:25.247Z,3.70
2023-07-04T03:24:53.210Z,2.15
2023-07-04T03:27:21.102Z,3.75
2023-07-04T03:29:50.456Z,1.75
2023-07-04T03:32:19.313Z,3.33
2023-07-04T03:34:47.281Z,5.95
2023-07-04T03:37:15.255Z,6.20
2023-07-04T03:39:43.390Z,4.28
2023-07-04T03:42:11.125Z,4.50
2023-07-04T03:44:39.284Z,4.35
2023-07-04T03:47:08.589Z,4.55
2023-07-04T03:49:36.801Z,4.25
2023-07-04T03:52:05.084Z,3.45
2023-07-04T03:54:32.826Z,2.95
2023-07-04T03:57:00.625Z,2.83
2023-07-04T03:59:28.619Z,4.80
2023-07-04T04:01:56.524Z,4.50
2023-07-04T04:04:25.750Z,6.78
2023-07-04T04:06:56.402Z,3.78
2023-07-04T04:09:24.186Z,4.82
2023-07-04T04:11:52.266Z,2.75
2023-07-04T04:14:20.133Z,4.25
2023-07-04T04:16:47.966Z,5.45
2023-07-04T04:19:15.817Z,4.43
2023-07-04T04:21:44.925Z,7.95
2023-07-04T04:24:12.681Z,7.78
2023-07-04T04:26:41.474Z,7.00
2023-07-04T04:29:09.797Z,4.82
2023-07-04T04:31:38.619Z,5.07
2023-07-04T04:34:07.030Z,6.70
2023-07-04T04:36:35.554Z,6.93
2023-07-04T04:39:05.040Z,5.47
2023-07-04T04:41:33.176Z,5.85
2023-07-04T04:44:05.486Z,7.68
2023-07-04T04:46:33.776Z,5.95
2023-07-04T04:49:03.743Z,5.78
2023-07-04T04:51:32.693Z,5.20
2023-07-04T04:54:02.178Z,6.07
2023-07-04T04:56:31.692Z,7.47
2023-07-04T04:58:59.598Z,4.55
2023-07-04T05:01:27.438Z,3.63
2023-07-04T05:03:56.868Z,4.38
2023-07-04T05:06:26.341Z,4.35
2023-07-04T05:08:54.862Z,4.63
2023-07-04T05:11:22.860Z,7.72
2023-07-04T05:13:53.090Z,5.28
2023-07-04T05:16:23.014Z,5.93
2023-07-04T05:18:53.282Z,3.13
2023-07-04T05:21:23.129Z,6.35
2023-07-04T05:23:52.690Z,4.35
2023-07-04T05:26:22.874Z,6.30
2023-07-04T05:28:53.004Z,5.68
2023-07-04T05:31:23.189Z,3.78
2023-07-04T05:33:50.974Z,9.15
2023-07-04T05:36:22.715Z,3.08
2023-07-04T05:38:51.456Z,4.90
2023-07-04T05:41:22.626Z,5.20
2023-07-04T05:43:52.302Z,4.53
2023-07-04T05:46:20.545Z,4.43
2023-07-04T05:48:48.805Z,4.82
2023-07-04T05:51:18.578Z,5.97
2023-07-04T05:53:49.697Z,5.30
2023-07-04T05:56:20.478Z,5.78
2023-07-04T05:58:50.645Z,4.13
2023-07-04T06:01:22.262Z,4.15
2023-07-04T06:03:50.653Z,6.82
2023-07-04T06:06:20.537Z,6.72
2023-07-04T06:08:48.671Z,9.40
2023-07-04T06:11:17.457Z,9.70
2023-07-04T06:13:45.378Z,8.23
2023-07-04T06:16:13.385Z,6.45
2023-07-04T06:18:43.600Z,9.07
2023-07-04T06:21:13.283Z,7.63
2023-07-04T06:23:42.111Z,7.55
2023-07-04T06:26:11.951Z,7.05
2023-07-04T06:28:40.951Z,6.65
2023-07-04T06:31:12.444Z,6.78
2023-07-04T06:33:42.148Z,8.68
2023-07-04T06:36:13.543Z,11.88
2023-07-04T06:38:41.393Z,8.27
2023-07-04T06:41:11.193Z,6.18
2023-07-04T06:43:40.587Z,6.80
2023-07-04T06:46:08.297Z,8.48
2023-07-04T06:48:36.064Z,7.25
2023-07-04T06:51:05.434Z,6.78
2023-07-04T06:53:35.668Z,6.10
2023-07-04T06:56:08.487Z,9.90
2023-07-04T06:58:41.173Z,6.32
2023-07-04T07:01:09.955Z,9.43
2023-07-04T07:03:38.011Z,6.55
2023-07-04T07:06:07.645Z,7.88
2023-07-04T07:08:37.413Z,5.63
2023-07-04T07:11:07.857Z,8.63
2023-07-04T07:13:36.485Z,6.18
2023-07-04T07:16:09.602Z,7.60
2023-07-04T07:18:38.336Z,6.13
2023-07-04T07:21:07.812Z,6.63
2023-07-04T07:23:38.446Z,6.70
2023-07-04T07:26:08.861Z,6.00
2023-07-04T07:28:40.441Z,7.53
2023-07-04T07:31:11.043Z,5.85
2023-07-04T07:33:40.981Z,6.95
2023-07-04T07:36:14.303Z,6.43
2023-07-04T07:38:44.241Z,6.38
2023-07-04T07:41:12.138Z,8.98
2023-07-04T07:43:41.260Z,7.30
2023-07-04T07:46:09.838Z,8.73
2023-07-04T07:48:38.403Z,5.97
2023-07-04T07:51:07.647Z,6.47
2023-07-04T07:53:36.724Z,8.10
2023-07-04T07:56:07.478Z,8.35
2023-07-04T07:58:35.837Z,8.55
2023-07-04T08:01:12.289Z,9.45
2023-07-04T08:03:40.466Z,8.88
2023-07-04T08:06:09.290Z,9.82
2023-07-04T08:08:37.085Z,10.93
2023-07-04T08:11:06.347Z,7.75
2023-07-04T08:13:34.434Z,12.93
2023-07-04T08:16:02.303Z,7.25
2023-07-04T08:18:30.208Z,14.68
2023-07-04T08:20:58.627Z,9.27
2023-07-04T08:23:26.888Z,7.80
2023-07-04T08:25:54.813Z,14.20
2023-07-04T08:28:24.553Z,12.27
2023-07-04T08:30:52.676Z,14.98
2023-07-04T08:33:20.827Z,15.32
2023-07-04T08:35:59.125Z,17.35
2023-07-04T08:38:27.402Z,12.32
2023-07-04T08:40:55.432Z,11.90
2023-07-04T08:43:32.481Z,8.13
2023-07-04T08:46:00.834Z,10.88
2023-07-04T08:48:30.494Z,10.98
2023-07-04T08:51:00.867Z,10.73
2023-07-04T08:53:29.794Z,7.40
2023-07-04T08:56:02.706Z,6.30
2023-07-04T08:58:39.054Z,11.05
2023-07-04T09:03:52.020Z,10.75
2023-07-04T09:06:31.730Z,8.82
2023-07-04T09:09:11.032Z,10.18
2023-07-04T09:11:38.875Z,11.65
2023-07-04T09:14:16.400Z,6.60
2023-07-04T09:16:50.024Z,9.73
2023-07-04T09:19:20.505Z,7.95
2023-07-04T09:21:48.489Z,7.53
2023-07-04T09:24:16.613Z,11.77
2023-07-04T09:26:47.213Z,8.38
2023-07-04T09:29:21.098Z,8.93
2023-07-04T09:31:53.361Z,7.65
2023-07-04T09:34:24.476Z,7.47
2023-07-04T09:36:53.971Z,8.70
2023-07-04T09:39:21.763Z,7.95
2023-07-04T09:42:13.075Z,8.13
2023-07-04T09:44:48.603Z,9.30
2023-07-04T09:47:25.067Z,13.55
2023-07-04T09:50:11.656Z,10.15
2023-07-04T09:52:40.527Z,11.02
2023-07-04T09:55:14.665Z,9.27
2023-07-04T09:57:42.757Z,7.65
2023-07-04T10:00:24.262Z,8.35
2023-07-04T10:02:55.796Z,7.82
2023-07-04T10:05:28.450Z,9.07
2023-07-04T10:08:09.229Z,8.85
2023-07-04T10:10:40.148Z,9.07
2023-07-04T10:13:09.989Z,10.85
2023-07-04T10:15:42.127Z,7.80
2023-07-04T10:18:25.753Z,11.13
2023-07-04T10:20:56.953Z,4.57
2023-07-04T10:23:27.433Z,9.23
2023-07-04T10:25:57.063Z,5.47
2023-07-04T10:28:27.632Z,9.32
2023-07-04T10:31:00.945Z,7.53
2023-07-04T10:33:37.583Z,10.98
2023-07-04T10:36:07.697Z,8.90
2023-07-04T10:38:42.176Z,6.60
2023-07-04T10:41:19.474Z,8.60
2023-07-04T10:43:54.369Z,7.03
2023-07-04T10:46:27.306Z,8.05
2023-07-04T10:49:02.059Z,6.30
2023-07-04T10:51:34.266Z,6.78
2023-07-04T10:54:02.404Z,12.07
2023-07-04T10:56:34.151Z,7.40
2023-07-04T10:59:07.441Z,7.88
2023-07-04T11:01:41.918Z,9.10
2023-07-04T11:04:14.972Z,6.20
2023-07-04T11:06:47.001Z,5.75
2023-07-04T11:09:17.239Z,6.78
2023-07-04T11:11:49.029Z,6.97
2023-07-04T11:14:22.635Z,7.13
2023-07-04T11:16:55.525Z,7.28
2023-07-04T11:19:29.303Z,6.50
2023-07-04T11:22:19.690Z,4.70
2023-07-04T11:24:53.044Z,8.48
2023-07-04T11:27:23.686Z,8.20
2023-07-04T11:29:54.350Z,8.50
2023-07-04T11:32:27.881Z,12.85
2023-07-04T11:35:03.952Z,9.50
2023-07-04T11:40:05.951Z,7.20
2023-07-04T11:42:41.058Z,6.68
2023-07-04T11:45:14.216Z,6.43
2023-07-04T11:47:50.894Z,10.07
2023-07-04T11:50:21.589Z,5.30
2023-07-04T11:52:57.597Z,8.27
2023-07-04T11:55:30.788Z,6.40
2023-07-04T11:58:01.745Z,6.10
2023-07-04T12:01:07.681Z,5.72
2023-07-04T12:04:11.604Z,5.38
2023-07-04T12:09:40.516Z,11.02
2023-07-04T12:12:17.438Z,6.68
2023-07-04T12:14:50.054Z,6.75
2023-07-04T12:17:19.782Z,6.70
2023-07-04T12:19:48.892Z,7.22
2023-07-04T12:22:18.905Z,6.57
2023-07-04T12:24:48.206Z,5.10
2023-07-04T12:27:15.992Z,7.10
2023-07-04T12:32:19.518Z,7.90
2023-07-04T12:37:20.990Z,10.05
2023-07-04T12:39:50.603Z,6.00
2023-07-04T12:42:23.576Z,6.47
2023-07-04T12:44:52.421Z,9.10
2023-07-04T12:47:26.276Z,2.55
2023-07-04T12:50:00.249Z,4.22
2023-07-04T12:52:32.849Z,7.68
2023-07-04T12:55:03.320Z,5.78
2023-07-04T12:57:32.109Z,4.57
2023-07-04T13:00:11.594Z,9.52
2023-07-04T13:02:39.682Z,10.02
2023-07-04T13:05:13.918Z,6.75
2023-07-04T13:07:45.105Z,7.35
2023-07-04T13:10:21.589Z,4.80
2023-07-04T13:12:49.386Z,4.78
2023-07-04T13:15:25.665Z,5.85
2023-07-04T13:17:59.121Z,7.65
2023-07-04T13:20:30.186Z,7.88
2023-07-04T13:25:49.918Z,12.77
2023-07-04T13:32:59.820Z,9.60
2023-07-04T13:33:43.070Z,5.22
2023-07-04T13:36:14.158Z,8.80
2023-07-04T13:41:14.790Z,7.35
2023-07-04T13:46:13.873Z,7.50
2023-07-04T13:48:41.635Z,4.40
2023-07-04T13:51:09.425Z,4.50
2023-07-04T13:53:38.580Z,10.90
2023-07-04T13:56:06.870Z,5.68
2023-07-04T13:58:36.098Z,5.55
2023-07-04T14:06:06.959Z,9.25
2023-07-04T14:08:39.101Z,7.20
2023-07-04T14:11:08.728Z,6.25
2023-07-04T14:13:36.677Z,4.00
2023-07-04T14:21:10.612Z,6.00
2023-07-04T14:23:40.232Z,5.50
2023-07-04T14:26:14.611Z,4.55
2023-07-04T14:28:42.412Z,7.80
2023-07-04T14:31:10.418Z,5.68
2023-07-04T14:33:38.730Z,9.82
2023-07-04T14:36:07.389Z,5.55
2023-07-04T14:38:36.042Z,5.78
2023-07-04T14:43:36.562Z,5.88
2023-07-04T14:46:07.839Z,5.38
2023-07-04T14:48:36.442Z,6.57
2023-07-04T14:51:06.295Z,6.10
2023-07-04T14:53:34.731Z,7.28
2023-07-04T14:56:04.726Z,5.63
2023-07-04T14:58:33.879Z,7.40
2023-07-04T15:01:02.230Z,4.60
2023-07-04T15:03:31.023Z,6.28
2023-07-04T15:05:59.735Z,6.55
2023-07-04T15:08:27.775Z,6.30
2023-07-04T15:10:56.229Z,4.50
2023-07-04T15:13:24.664Z,9.70
2023-07-04T15:15:58.343Z,5.32
2023-07-04T15:18:26.498Z,9.10
2023-07-04T15:20:54.701Z,6.80
2023-07-04T15:23:22.402Z,7.57
2023-07-04T15:25:52.652Z,4.55
2023-07-04T15:28:21.953Z,4.20
2023-07-04T15:30:52.645Z,7.88
2023-07-04T15:33:22.446Z,5.93
2023-07-04T15:35:53.993Z,7.72
2023-07-04T15:38:23.249Z,5.72
2023-07-04T15:40:52.787Z,5.18
2023-07-04T15:43:22.192Z,4.75
2023-07-04T15:45:52.671Z,6.50
2023-07-04T15:48:21.917Z,10.02
2023-07-04T15:50:49.948Z,7.38
2023-07-04T15:53:17.723Z,5.72
2023-07-04T15:55:45.437Z,6.18
2023-07-04T15:58:13.158Z,5.20
2023-07-04T16:00:41.214Z,7.53
2023-07-04T16:03:09.022Z,4.70
2023-07-04T16:05:42.480Z,7.30
2023-07-04T16:08:10.324Z,9.13
2023-07-04T16:10:38.395Z,9.65
2023-07-04T16:13:06.748Z,7.60
2023-07-04T16:15:37.311Z,6.55
2023-07-04T16:18:05.668Z,7.18
2023-07-04T16:20:34.316Z,5.80
2023-07-04T16:23:03.393Z,4.53
2023-07-04T16:25:31.283Z,4.90
2023-07-04T16:27:59.016Z,4.55
2023-07-04T16:30:26.830Z,6.55
2023-07-04T16:32:54.781Z,5.35
2023-07-04T16:35:22.518Z,6.60
2023-07-04T16:37:50.517Z,7.70
2023-07-04T16:40:19.652Z,6.32
2023-07-04T16:42:47.408Z,6.20
2023-07-04T16:45:15.409Z,8.05
2023-07-04T16:47:43.401Z,6.65
2023-07-04T16:50:29.342Z,5.50
2023-07-04T16:52:59.251Z,7.30
2023-07-04T16:55:29.053Z,9.18
2023-07-04T16:57:56.859Z,6.88
2023-07-04T17:00:25.000Z,6.28
2023-07-04T17:02:53.353Z,6.03
2023-07-04T17:05:21.482Z,7.88
2023-07-04T17:07:49.261Z,9.82
2023-07-04T17:10:17.128Z,6.78
2023-07-04T17:12:46.209Z,6.22
2023-07-04T17:15:14.007Z,7.20
2023-07-04T17:17:42.037Z,6.65
2023-07-04T17:20:10.775Z,6.50
2023-07-04T17:22:38.919Z,10.73
2023-07-04T17:25:14.480Z,7.05
2023-07-04T17:27:42.882Z,6.43
2023-07-04T17:30:12.720Z,7.65
2023-07-04T17:32:40.477Z,7.22
2023-07-04T17:35:10.459Z,7.68
2023-07-04T17:37:38.541Z,6.53
2023-07-04T17:40:07.476Z,8.27
2023-07-04T17:42:35.617Z,6.72
2023-07-04T17:45:03.633Z,5.50
2023-07-04T17:47:32.961Z,5.28
2023-07-04T17:50:00.719Z,5.75
2023-07-04T17:52:29.160Z,8.15
2023-07-04T17:54:59.044Z,6.18
2023-07-04T17:57:28.548Z,8.32
2023-07-04T17:59:57.013Z,7.43
2023-07-04T18:02:25.135Z,6.47
2023-07-04T18:04:55.013Z,7.57
2023-07-04T18:07:23.002Z,5.70
2023-07-04T18:09:52.958Z,4.25
2023-07-04T18:12:26.720Z,7.18
2023-07-04T18:14:56.208Z,4.72
2023-07-04T18:17:24.167Z,4.88
2023-07-04T18:19:57.968Z,7.07
2023-07-04T18:22:27.066Z,7.10
2023-07-04T18:24:56.085Z,6.30
2023-07-04T18:27:24.627Z,7.70
2023-07-04T18:29:53.424Z,6.13
2023-07-04T18:32:23.040Z,4.93
2023-07-04T18:34:56.040Z,7.50
2023-07-04T18:37:26.945Z,6.10
2023-07-04T18:39:54.693Z,5.40
2023-07-04T18:42:22.400Z,4.40
2023-07-04T18:44:50.228Z,7.15
2023-07-04T18:47:18.040Z,5.70
2023-07-04T18:49:45.791Z,4.47
2023-07-04T18:52:14.938Z,4.22
2023-07-04T18:54:42.817Z,3.90
2023-07-04T18:57:11.311Z,7.47
2023-07-04T18:59:39.133Z,3.42
2023-07-04T19:02:08.277Z,5.00
2023-07-04T19:04:36.873Z,4.55
2023-07-04T19:07:04.769Z,3.35
2023-07-04T19:09:33.876Z,5.80
2023-07-04T19:12:02.078Z,4.90
2023-07-04T19:14:31.859Z,5.53
2023-07-04T19:17:00.772Z,5.47
2023-07-04T19:19:30.427Z,4.00
2023-07-04T19:22:00.425Z,3.40
2023-07-04T19:24:30.262Z,5.68
2023-07-04T19:27:00.176Z,4.88
2023-07-04T19:29:29.634Z,4.63
2023-07-04T19:32:01.028Z,5.13
2023-07-04T19:34:29.887Z,4.80
2023-07-04T19:36:58.590Z,8.82
2023-07-04T19:39:28.278Z,8.90
2023-07-04T19:41:56.040Z,6.13
2023-07-04T19:44:25.273Z,6.60
2023-07-04T19:46:53.362Z,5.25
2023-07-04T19:49:21.538Z,7.43
2023-07-04T19:51:49.274Z,7.38
2023-07-04T19:54:17.129Z,5.68
2023-07-04T19:56:45.674Z,5.57
2023-07-04T19:59:13.557Z,7.15
2023-07-04T20:01:42.768Z,8.93
2023-07-04T20:04:10.526Z,9.07
2023-07-04T20:06:39.141Z,6.45
2023-07-04T20:09:07.095Z,11.00
2023-07-04T20:11:34.858Z,7.18
2023-07-04T20:14:03.727Z,7.75
2023-07-04T20:16:33.461Z,7.75
2023-07-04T20:19:03.264Z,10.88
2023-07-04T20:21:31.309Z,6.07
2023-07-04T20:23:59.265Z,5.00
2023-07-04T20:26:29.837Z,4.80
2023-07-04T20:28:59.673Z,8.18
2023-07-04T20:31:27.891Z,6.38
2023-07-04T20:33:56.005Z,7.75
2023-07-04T20:36:25.090Z,6.40
2023-07-04T20:38:52.921Z,6.30
2023-07-04T20:41:20.906Z,6.15
2023-07-04T20:43:48.687Z,7.63
2023-07-04T20:46:16.535Z,5.40
2023-07-04T20:48:44.294Z,5.63
2023-07-04T20:51:13.522Z,5.45
2023-07-04T20:53:44.341Z,5.85
2023-07-04T20:56:14.093Z,8.68
2023-07-04T20:58:42.220Z,7.75
2023-07-04T21:01:10.484Z,6.68
2023-07-04T21:03:38.635Z,7.18
2023-07-04T21:06:07.526Z,6.43
2023-07-04T21:08:36.551Z,13.32
2023-07-04T21:11:06.670Z,8.88
2023-07-04T21:13:37.013Z,8.52
2023-07-04T21:16:07.177Z,7.72
2023-07-04T21:18:36.107Z,6.63
2023-07-04T21:21:05.516Z,8.88
2023-07-04T21:23:33.401Z,7.15
2023-07-04T21:26:02.194Z,6.50
2023-07-04T21:28:31.466Z,8.45
2023-07-04T21:31:03.940Z,13.70
2023-07-04T21:33:32.099Z,9.40
2023-07-04T21:36:01.188Z,8.73
2023-07-04T21:38:29.434Z,8.27
2023-07-04T21:40:57.624Z,9.77
2023-07-04T21:43:25.619Z,8.63
2023-07-04T21:45:58.293Z,9.13
2023-07-04T21:48:27.597Z,7.97
2023-07-04T21:50:55.719Z,7.82
2023-07-04T21:53:23.730Z,8.00
2023-07-04T21:55:52.331Z,10.43
2023-07-04T21:58:21.501Z,7.13
2023-07-04T22:00:50.213Z,9.50
2023-07-04T22:03:20.225Z,6.68
2023-07-04T22:05:48.691Z,9.57
2023-07-04T22:08:19.202Z,6.40
2023-07-04T22:10:56.171Z,7.88
2023-07-04T22:13:24.092Z,9.82
2023-07-04T22:15:52.039Z,8.65
2023-07-04T22:18:21.402Z,7.78
2023-07-04T22:20:49.482Z,8.85
2023-07-04T22:23:17.287Z,11.73
2023-07-04T22:25:45.102Z,11.70
2023-07-04T22:28:12.952Z,6.65
2023-07-04T22:30:40.996Z,9.80
2023-07-04T22:33:09.123Z,10.20
2023-07-04T22:35:38.461Z,7.32
2023-07-04T22:38:06.270Z,9.65
2023-07-04T22:40:34.102Z,9.05
2023-07-04T22:43:01.866Z,7.97
2023-07-04T22:45:29.709Z,9.65
2023-07-04T22:47:57.596Z,7.50
2023-07-04T22:50:25.420Z,7.70
2023-07-04T22:52:54.562Z,6.43
2023-07-04T22:55:22.309Z,8.60
2023-07-04T22:57:50.121Z,11.40
2023-07-04T23:00:18.958Z,7.28
2023-07-04T23:02:49.077Z,9.93
2023-07-04T23:05:17.200Z,8.20
2023-07-04T23:07:44.982Z,6.40
2023-07-04T23:10:14.267Z,7.43
2023-07-04T23:12:42.026Z,8.85
2023-07-04T23:15:10.748Z,11.55
2023-07-04T23:17:38.662Z,11.95
2023-07-04T23:20:07.606Z,8.63
2023-07-04T23:22:35.443Z,9.52
2023-07-04T23:25:03.772Z,7.22
2023-07-04T23:27:33.123Z,11.65
2023-07-04T23:30:01.051Z,8.30
2023-07-04T23:32:28.832Z,9.00
2023-07-04T23:34:56.718Z,9.05
2023-07-04T23:37:25.109Z,10.02
2023-07-04T23:39:53.335Z,8.25
2023-07-04T23:42:21.149Z,7.97
2023-07-04T23:44:50.417Z,8.57
2023-07-04T23:47:18.227Z,7.60
2023-07-04T23:49:46.563Z,9.95
2023-07-04T23:52:14.468Z,7.95
2023-07-04T23:54:42.223Z,9.90
2023-07-04T23:57:10.325Z,12.52
2023-07-04T23:59:38.286Z,8.02
